createdAt,value
2023-05-14T00:00:08.497Z,8.66
2023-05-14T00:05:31.269Z,8.61
2023-05-14T00:10:34.222Z,8.58
2023-05-14T00:15:37.054Z,8.57
2023-05-14T00:20:40.918Z,8.55
2023-05-14T00:25:43.688Z,8.51
2023-05-14T00:30:46.572Z,8.48
2023-05-14T00:35:49.412Z,8.41
2023-05-14T00:40:52.211Z,8.34
2023-05-14T00:45:55.150Z,8.32
2023-05-14T00:50:57.898Z,8.26
2023-05-14T00:56:00.681Z,8.18
2023-05-14T01:01:03.532Z,8.13
2023-05-14T01:06:19.847Z,8.06
2023-05-14T01:11:43.916Z,7.98
2023-05-14T01:16:46.856Z,7.87
2023-05-14T01:21:49.706Z,7.78
2023-05-14T01:26:53.466Z,7.72
2023-05-14T01:31:59.120Z,7.66
2023-05-14T01:37:01.964Z,7.61
2023-05-14T01:42:05.896Z,7.55
2023-05-14T01:47:08.695Z,7.55
2023-05-14T01:52:12.133Z,7.55
2023-05-14T01:57:14.861Z,7.53
2023-05-14T02:02:17.702Z,7.44
2023-05-14T02:07:20.799Z,7.37
2023-05-14T02:12:23.697Z,7.29
2023-05-14T02:17:26.490Z,7.23
2023-05-14T02:22:29.356Z,7.17
2023-05-14T02:27:32.298Z,7.12
2023-05-14T02:32:37.836Z,7.08
2023-05-14T02:37:40.771Z,7.06
2023-05-14T02:42:43.512Z,7.01
2023-05-14T02:47:46.372Z,6.97
2023-05-14T02:52:49.239Z,6.94
2023-05-14T02:57:53.299Z,6.90
2023-05-14T03:02:56.209Z,6.86
2023-05-14T03:07:59.329Z,6.86
2023-05-14T03:13:02.066Z,6.88
2023-05-14T03:18:04.985Z,6.89
2023-05-14T03:23:07.795Z,6.89
2023-05-14T03:28:10.559Z,6.90
2023-05-14T03:33:13.313Z,6.93
2023-05-14T03:38:16.356Z,6.98
2023-05-14T03:43:19.105Z,7.05
2023-05-14T03:48:21.923Z,7.12
2023-05-14T03:53:24.782Z,7.19
2023-05-14T03:58:27.550Z,7.30
2023-05-14T04:03:30.778Z,7.41
2023-05-14T04:08:33.834Z,7.52
2023-05-14T04:13:36.762Z,7.66
2023-05-14T04:18:40.241Z,7.81
2023-05-14T04:23:43.075Z,7.97
2023-05-14T04:28:45.844Z,8.14
2023-05-14T04:33:48.666Z,8.32
2023-05-14T04:38:51.687Z,8.48
2023-05-14T04:43:56.408Z,8.63
2023-05-14T04:48:59.177Z,8.78
2023-05-14T04:54:01.952Z,8.95
2023-05-14T04:59:04.754Z,9.14
2023-05-14T05:04:26.228Z,9.33
2023-05-14T05:09:29.124Z,9.55
2023-05-14T05:14:31.905Z,9.74
2023-05-14T05:19:43.078Z,9.96
2023-05-14T05:24:49.125Z,10.19
2023-05-14T05:29:52.737Z,10.42
2023-05-14T05:34:55.866Z,10.64
2023-05-14T05:39:58.655Z,10.87
2023-05-14T05:45:01.394Z,11.10
2023-05-14T05:50:05.013Z,11.34
2023-05-14T05:55:08.374Z,11.57
2023-05-14T06:00:15.294Z,11.82
2023-05-14T06:05:19.319Z,12.07
2023-05-14T06:10:22.342Z,12.31
2023-05-14T06:15:25.618Z,12.54
2023-05-14T06:20:28.408Z,12.77
2023-05-14T06:25:31.382Z,13.07
2023-05-14T06:30:34.269Z,13.35
2023-05-14T06:35:37.079Z,13.64
2023-05-14T06:40:39.932Z,13.89
2023-05-14T06:45:42.779Z,14.17
2023-05-14T06:50:47.244Z,14.42
2023-05-14T06:55:50.127Z,14.70
2023-05-14T07:00:52.941Z,15.00
2023-05-14T07:05:55.728Z,15.28
2023-05-14T07:10:58.659Z,15.51
2023-05-14T07:16:01.443Z,15.97
2023-05-14T07:21:07.712Z,16.29
2023-05-14T07:26:10.888Z,16.51
2023-05-14T07:31:13.794Z,16.71
2023-05-14T07:36:16.607Z,16.91
2023-05-14T07:41:19.459Z,17.18
2023-05-14T07:46:22.395Z,17.40
2023-05-14T07:51:28.266Z,17.60
2023-05-14T07:56:31.439Z,17.86
2023-05-14T08:01:34.203Z,18.09
2023-05-14T08:06:37.561Z,18.28
2023-05-14T08:11:41.769Z,18.52
2023-05-14T08:16:44.559Z,18.73
2023-05-14T08:21:47.350Z,18.92
2023-05-14T08:26:50.120Z,19.16
2023-05-14T08:31:52.916Z,19.40
2023-05-14T08:36:55.732Z,19.62
2023-05-14T08:41:58.649Z,19.82
2023-05-14T08:47:01.417Z,20.02
2023-05-14T08:52:07.411Z,20.18
2023-05-14T08:57:10.706Z,20.39
2023-05-14T09:02:15.125Z,20.64
2023-05-14T09:07:20.720Z,20.90
2023-05-14T09:12:23.616Z,21.12
2023-05-14T09:17:27.976Z,21.37
2023-05-14T09:22:33.373Z,21.57
2023-05-14T09:27:36.567Z,21.76
2023-05-14T09:32:44.057Z,22.03
2023-05-14T09:37:49.500Z,22.39
2023-05-14T09:42:52.218Z,22.59
2023-05-14T09:47:56.642Z,22.87
2023-05-14T09:52:59.522Z,23.39
2023-05-14T09:58:02.434Z,23.86
2023-05-14T10:03:08.181Z,24.25
2023-05-14T10:08:26.919Z,24.88
2023-05-14T10:13:38.152Z,25.83
2023-05-14T10:18:43.517Z,26.57
2023-05-14T10:23:46.437Z,27.48
2023-05-14T10:28:49.534Z,28.42
2023-05-14T10:33:58.019Z,29.17
2023-05-14T10:39:04.508Z,29.08
2023-05-14T10:44:09.981Z,29.95
2023-05-14T10:49:13.044Z,30.59
2023-05-14T10:54:16.968Z,31.48
2023-05-14T10:59:19.797Z,31.91
2023-05-14T11:04:27.200Z,32.20
2023-05-14T11:09:30.037Z,32.49
2023-05-14T11:14:34.948Z,33.41
2023-05-14T11:19:37.831Z,34.19
2023-05-14T11:24:42.527Z,35.03
2023-05-14T11:29:46.321Z,35.61
2023-05-14T11:34:49.209Z,34.61
2023-05-14T11:39:54.798Z,34.88
2023-05-14T11:44:57.624Z,35.95
2023-05-14T11:50:01.220Z,36.63
2023-05-14T11:55:04.485Z,37.91
2023-05-14T12:00:13.614Z,38.29
2023-05-14T12:05:16.666Z,38.81
2023-05-14T12:10:19.588Z,39.38
2023-05-14T12:15:24.791Z,40.23
2023-05-14T12:20:28.706Z,40.26
2023-05-14T12:25:31.723Z,39.80
2023-05-14T12:30:38.117Z,39.67
2023-05-14T12:35:41.910Z,39.13
2023-05-14T12:40:44.757Z,39.32
2023-05-14T12:45:47.479Z,38.80
2023-05-14T12:50:51.297Z,40.47
2023-05-14T12:55:54.790Z,41.59
2023-05-14T13:00:57.915Z,42.75
2023-05-14T13:06:01.320Z,41.67
2023-05-14T13:11:04.271Z,38.78
2023-05-14T13:16:07.398Z,39.11
2023-05-14T13:21:10.182Z,39.58
2023-05-14T13:26:13.040Z,40.85
2023-05-14T13:31:16.362Z,41.21
2023-05-14T13:36:19.169Z,41.60
2023-05-14T13:41:22.268Z,42.03
2023-05-14T13:46:25.192Z,39.90
2023-05-14T13:51:28.170Z,39.29
2023-05-14T13:56:31.028Z,36.12
2023-05-14T14:01:33.876Z,33.15
2023-05-14T14:06:36.696Z,32.30
2023-05-14T14:11:41.019Z,35.16
2023-05-14T14:16:44.356Z,33.91
2023-05-14T14:21:47.392Z,32.92
2023-05-14T14:26:50.266Z,31.49
2023-05-14T14:31:53.485Z,31.73
2023-05-14T14:36:56.583Z,32.12
2023-05-14T14:41:59.930Z,31.93
2023-05-14T14:47:02.677Z,30.96
2023-05-14T14:52:05.558Z,30.27
2023-05-14T14:57:08.638Z,29.77
2023-05-14T15:02:11.444Z,29.41
2023-05-14T15:07:16.530Z,29.01
2023-05-14T15:12:19.254Z,28.69
2023-05-14T15:17:22.133Z,28.33
2023-05-14T15:22:24.933Z,28.06
2023-05-14T15:27:27.824Z,27.81
2023-05-14T15:32:30.773Z,27.53
2023-05-14T15:37:42.004Z,27.16
2023-05-14T15:42:44.906Z,26.73
2023-05-14T15:48:08.097Z,26.04
2023-05-14T15:53:10.970Z,25.45
2023-05-14T15:58:13.937Z,25.17
2023-05-14T16:03:17.450Z,24.88
2023-05-14T16:08:20.346Z,24.49
2023-05-14T16:13:23.121Z,24.17
2023-05-14T16:18:26.317Z,24.02
2023-05-14T16:23:29.314Z,23.91
2023-05-14T16:28:34.990Z,23.80
2023-05-14T16:33:37.902Z,23.67
2023-05-14T16:38:52.306Z,23.52
2023-05-14T16:44:03.578Z,23.27
2023-05-14T16:49:06.792Z,23.01
2023-05-14T16:54:09.904Z,22.78
2023-05-14T16:59:12.725Z,22.58
2023-05-14T17:04:17.745Z,22.39
2023-05-14T17:09:20.946Z,22.16
2023-05-14T17:14:23.915Z,21.96
2023-05-14T17:19:26.892Z,21.79
2023-05-14T17:24:29.685Z,21.59
2023-05-14T17:29:32.498Z,21.38
2023-05-14T17:34:35.406Z,21.14
2023-05-14T17:39:38.291Z,20.91
2023-05-14T17:44:41.034Z,20.69
2023-05-14T17:49:43.878Z,20.48
2023-05-14T17:54:46.806Z,20.27
2023-05-14T17:59:49.577Z,20.06
2023-05-14T18:04:52.538Z,19.86
2023-05-14T18:09:55.413Z,19.67
2023-05-14T18:14:58.198Z,19.47
2023-05-14T18:20:00.968Z,19.28
2023-05-14T18:25:04.345Z,19.07
2023-05-14T18:30:08.946Z,18.85
2023-05-14T18:35:12.335Z,18.62
2023-05-14T18:40:16.997Z,18.39
2023-05-14T18:45:22.558Z,18.17
2023-05-14T18:50:25.847Z,17.95
2023-05-14T18:55:28.895Z,17.73
2023-05-14T19:00:31.992Z,17.53
2023-05-14T19:05:34.939Z,17.36
2023-05-14T19:10:37.780Z,17.17
2023-05-14T19:15:40.855Z,16.98
2023-05-14T19:20:46.263Z,16.81
2023-05-14T19:25:49.105Z,16.69
2023-05-14T19:30:53.338Z,16.61
2023-05-14T19:35:56.341Z,16.53
2023-05-14T19:40:59.308Z,16.47
2023-05-14T19:46:04.474Z,16.39
2023-05-14T19:51:08.604Z,16.32
2023-05-14T19:56:11.508Z,16.26
2023-05-14T20:01:14.799Z,16.20
2023-05-14T20:06:18.510Z,16.14
2023-05-14T20:11:21.604Z,16.07
2023-05-14T20:16:24.734Z,16.01
2023-05-14T20:21:27.530Z,15.95
2023-05-14T20:26:30.561Z,15.88
2023-05-14T20:31:33.460Z,15.82
2023-05-14T20:36:36.284Z,15.76
2023-05-14T20:41:39.105Z,15.70
2023-05-14T20:46:41.968Z,15.65
2023-05-14T20:51:44.933Z,15.60
2023-05-14T20:56:47.717Z,15.55
2023-05-14T21:01:51.006Z,15.51
2023-05-14T21:06:54.137Z,15.49
2023-05-14T21:11:57.119Z,15.45
2023-05-14T21:17:00.163Z,15.42
2023-05-14T21:22:02.988Z,15.40
2023-05-14T21:27:06.016Z,15.39
2023-05-14T21:32:08.941Z,15.35
2023-05-14T21:37:11.737Z,15.31
2023-05-14T21:42:16.171Z,15.29
2023-05-14T21:47:19.973Z,15.30
2023-05-14T21:52:22.837Z,15.33
2023-05-14T21:57:28.240Z,15.40
2023-05-14T22:02:32.147Z,15.45
2023-05-14T22:07:35.088Z,15.47
2023-05-14T22:12:37.934Z,15.49
2023-05-14T22:17:41.409Z,15.52
2023-05-14T22:22:44.241Z,15.54
2023-05-14T22:27:47.018Z,15.55
2023-05-14T22:32:49.798Z,15.59
2023-05-14T22:37:52.640Z,15.62
2023-05-14T22:42:55.460Z,15.65
2023-05-14T22:47:58.503Z,15.68
2023-05-14T22:53:01.246Z,15.68
2023-05-14T22:58:04.122Z,15.67
2023-05-14T23:03:06.979Z,15.67
2023-05-14T23:08:10.724Z,15.66
2023-05-14T23:13:13.526Z,15.66
2023-05-14T23:18:16.577Z,15.64
2023-05-14T23:23:20.554Z,15.64
2023-05-14T23:28:23.273Z,15.63
2023-05-14T23:33:26.624Z,15.62
2023-05-14T23:38:29.404Z,15.60
2023-05-14T23:43:33.873Z,15.59
2023-05-14T23:48:36.733Z,15.57
2023-05-14T23:53:39.615Z,15.54
2023-05-14T23:58:42.485Z,15.51
